createdAt,value
2022-08-16T00:02:24.503Z,86.59
2022-08-16T00:04:52.417Z,86.63
2022-08-16T00:07:20.475Z,86.64
2022-08-16T00:09:48.376Z,87.25
2022-08-16T00:12:17.735Z,87.67
2022-08-16T00:14:46.091Z,88.43
2022-08-16T00:17:19.123Z,87.69
2022-08-16T00:19:49.128Z,87.97
2022-08-16T00:22:24.752Z,88.54
2022-08-16T00:24:53.334Z,88.12
2022-08-16T00:27:22.322Z,87.95
2022-08-16T00:30:08.410Z,87.60
2022-08-16T00:32:38.464Z,88.45
2022-08-16T00:35:13.790Z,88.58
2022-08-16T00:37:56.645Z,89.29
2022-08-16T00:40:34.656Z,90.26
2022-08-16T00:43:04.490Z,89.26
2022-08-16T00:45:36.293Z,90.67
2022-08-16T00:48:28.732Z,91.15
2022-08-16T00:50:55.942Z,91.26
2022-08-16T00:53:24.477Z,91.46
2022-08-16T00:55:55.305Z,92.24
2022-08-16T00:58:34.458Z,92.39
2022-08-16T01:01:03.354Z,92.84
2022-08-16T01:03:36.985Z,92.67
2022-08-16T01:06:40.424Z,92.50
2022-08-16T01:09:00.420Z,93.13
2022-08-16T01:11:29.354Z,93.93
2022-08-16T01:14:02.267Z,93.55
2022-08-16T01:16:30.875Z,92.91
2022-08-16T01:19:02.549Z,93.02
2022-08-16T01:21:41.023Z,92.30
2022-08-16T01:24:51.776Z,92.76
2022-08-16T01:27:26.115Z,92.59
2022-08-16T01:29:59.695Z,92.88
2022-08-16T01:32:33.209Z,92.82
2022-08-16T01:35:03.880Z,92.79
2022-08-16T01:37:40.035Z,93.07
2022-08-16T01:40:13.523Z,93.32
2022-08-16T01:42:44.729Z,93.19
2022-08-16T01:45:16.227Z,93.46
2022-08-16T01:47:50.968Z,93.45
2022-08-16T01:50:42.246Z,93.02
2022-08-16T01:53:23.239Z,93.05
2022-08-16T01:55:53.818Z,93.12
2022-08-16T01:58:22.725Z,93.82
2022-08-16T02:00:51.048Z,94.40
2022-08-16T02:03:19.188Z,94.97
2022-08-16T02:05:52.489Z,95.75
2022-08-16T02:08:32.703Z,96.23
2022-08-16T02:11:04.745Z,96.50
2022-08-16T02:13:33.012Z,96.87
2022-08-16T02:16:01.422Z,97.01
2022-08-16T02:18:29.423Z,98.08
2022-08-16T02:20:57.289Z,97.56
2022-08-16T02:23:29.657Z,96.82
2022-08-16T02:25:59.536Z,96.52
2022-08-16T02:28:29.367Z,97.48
2022-08-16T02:31:00.514Z,98.13
2022-08-16T02:33:44.586Z,98.03
2022-08-16T02:36:42.460Z,98.88
2022-08-16T02:39:06.042Z,99.27
2022-08-16T02:41:34.520Z,99.02
2022-08-16T02:44:11.231Z,99.15
2022-08-16T02:46:41.819Z,98.76
2022-08-16T02:49:18.460Z,98.38
2022-08-16T02:51:48.078Z,98.30
2022-08-16T02:54:17.877Z,97.92
2022-08-16T02:56:47.942Z,97.40
2022-08-16T02:59:17.168Z,97.35
2022-08-16T03:01:47.020Z,96.61
2022-08-16T03:04:41.328Z,96.26
2022-08-16T03:07:06.123Z,96.87
2022-08-16T03:09:34.016Z,96.77
2022-08-16T03:12:02.686Z,98.53
2022-08-16T03:14:32.390Z,98.98
2022-08-16T03:17:02.102Z,98.00
2022-08-16T03:19:47.519Z,99.10
2022-08-16T03:22:28.273Z,99.45
2022-08-16T03:24:58.769Z,100.00
2022-08-16T03:27:30.931Z,100.00
2022-08-16T03:30:02.552Z,100.00
2022-08-16T03:32:44.779Z,100.00
2022-08-16T03:35:17.585Z,100.00
2022-08-16T03:38:02.536Z,100.00
2022-08-16T03:40:33.149Z,100.00
2022-08-16T03:43:19.637Z,100.00
2022-08-16T03:45:52.879Z,100.00
2022-08-16T03:48:37.050Z,100.00
2022-08-16T03:51:09.571Z,100.00
2022-08-16T03:53:38.436Z,100.00
2022-08-16T03:56:07.776Z,100.00
2022-08-16T03:58:48.443Z,100.00
2022-08-16T04:01:20.407Z,100.00
2022-08-16T04:03:48.119Z,100.00
2022-08-16T04:06:17.612Z,100.00
2022-08-16T04:08:45.733Z,100.00
2022-08-16T04:11:17.117Z,100.00
2022-08-16T04:14:00.121Z,100.00
2022-08-16T04:16:34.480Z,100.00
2022-08-16T04:19:04.433Z,100.00
2022-08-16T04:21:32.819Z,100.00
2022-08-16T04:24:01.164Z,100.00
2022-08-16T04:26:31.217Z,100.00
2022-08-16T04:29:23.263Z,100.00
2022-08-16T04:31:56.440Z,100.00
2022-08-16T04:34:27.993Z,100.00
2022-08-16T04:36:56.681Z,100.00
2022-08-16T04:39:25.135Z,100.00
2022-08-16T04:42:11.183Z,100.00
2022-08-16T04:44:54.292Z,100.00
2022-08-16T04:47:33.050Z,100.00
2022-08-16T04:50:03.340Z,100.00
2022-08-16T04:52:33.876Z,100.00
2022-08-16T04:55:05.979Z,100.00
2022-08-16T04:57:33.705Z,100.00
2022-08-16T05:00:31.028Z,100.00
2022-08-16T05:02:58.636Z,100.00
2022-08-16T05:05:32.990Z,100.00
2022-08-16T05:08:28.799Z,100.00
2022-08-16T05:10:52.864Z,100.00
2022-08-16T05:13:26.649Z,100.00
2022-08-16T05:16:11.742Z,100.00
2022-08-16T05:18:41.154Z,100.00
2022-08-16T05:21:11.403Z,100.00
2022-08-16T05:23:40.323Z,100.00
2022-08-16T05:26:19.625Z,100.00
2022-08-16T05:28:55.636Z,100.00
2022-08-16T05:31:24.064Z,100.00
2022-08-16T05:33:59.589Z,100.00
2022-08-16T05:36:34.240Z,100.00
2022-08-16T05:39:03.833Z,100.00
2022-08-16T05:41:31.512Z,100.00
2022-08-16T05:44:00.264Z,100.00
2022-08-16T05:46:32.983Z,100.00
2022-08-16T05:49:05.959Z,100.00
2022-08-16T05:51:40.168Z,100.00
2022-08-16T05:54:09.627Z,99.57
2022-08-16T05:56:39.323Z,99.22
2022-08-16T05:59:08.312Z,97.70
2022-08-16T06:01:38.780Z,97.48
2022-08-16T06:04:13.721Z,97.88
2022-08-16T06:06:57.612Z,97.30
2022-08-16T06:09:42.738Z,97.13
2022-08-16T06:12:12.696Z,97.25
2022-08-16T06:14:58.466Z,96.60
2022-08-16T06:17:41.651Z,95.96
2022-08-16T06:20:18.285Z,96.27
2022-08-16T06:22:57.615Z,96.05
2022-08-16T06:25:36.628Z,95.63
2022-08-16T06:28:09.270Z,94.86
2022-08-16T06:30:43.805Z,94.11
2022-08-16T06:33:22.335Z,92.96
2022-08-16T06:35:54.779Z,92.87
2022-08-16T06:38:32.581Z,92.64
2022-08-16T06:41:03.811Z,92.42
2022-08-16T06:43:32.082Z,93.41
2022-08-16T06:46:00.192Z,93.22
2022-08-16T06:48:32.863Z,92.78
2022-08-16T06:51:03.844Z,90.06
2022-08-16T06:53:33.791Z,90.70
2022-08-16T06:56:13.893Z,90.32
2022-08-16T06:58:46.243Z,90.75
2022-08-16T07:01:14.705Z,89.74
2022-08-16T07:03:55.402Z,89.23
2022-08-16T07:06:27.344Z,89.79
2022-08-16T07:08:55.984Z,88.22
2022-08-16T07:11:47.283Z,86.83
2022-08-16T07:14:25.684Z,87.12
2022-08-16T07:16:58.263Z,86.75
2022-08-16T07:20:01.477Z,86.09
2022-08-16T07:22:39.261Z,85.03
2022-08-16T07:25:10.024Z,85.63
2022-08-16T07:27:38.063Z,85.88
2022-08-16T07:30:39.976Z,84.92
2022-08-16T07:32:56.098Z,84.53
2022-08-16T07:35:24.333Z,83.85
2022-08-16T07:37:54.195Z,84.49
2022-08-16T07:40:36.973Z,84.40
2022-08-16T07:43:09.649Z,84.21
2022-08-16T07:45:37.384Z,83.78
2022-08-16T07:48:11.152Z,83.80
2022-08-16T07:50:55.943Z,83.76
2022-08-16T07:53:29.102Z,82.30
2022-08-16T07:55:57.267Z,81.38
2022-08-16T07:58:34.211Z,82.14
2022-08-16T08:01:10.048Z,81.61
2022-08-16T08:03:41.568Z,81.52
2022-08-16T08:06:11.896Z,81.59
2022-08-16T08:08:50.852Z,79.75
2022-08-16T08:11:21.765Z,79.37
2022-08-16T08:13:51.499Z,78.83
2022-08-16T08:16:22.128Z,78.04
2022-08-16T08:19:00.551Z,77.52
2022-08-16T08:21:59.336Z,77.45
2022-08-16T08:24:18.278Z,76.32
2022-08-16T08:26:50.143Z,76.66
2022-08-16T08:29:23.117Z,76.41
2022-08-16T08:32:59.990Z,75.05
2022-08-16T08:34:52.651Z,75.13
2022-08-16T08:37:27.563Z,75.27
2022-08-16T08:40:17.053Z,74.33
2022-08-16T08:42:48.094Z,74.45
2022-08-16T08:45:43.074Z,73.65
2022-08-16T08:48:06.020Z,73.08
2022-08-16T08:50:34.183Z,71.99
2022-08-16T08:53:06.413Z,72.07
2022-08-16T08:55:36.327Z,71.70
2022-08-16T08:58:04.456Z,71.92
2022-08-16T09:00:32.357Z,71.80
2022-08-16T09:03:21.437Z,70.91
2022-08-16T09:05:51.733Z,71.06
2022-08-16T09:08:19.752Z,69.45
2022-08-16T09:11:01.933Z,67.88
2022-08-16T09:13:34.110Z,68.46
2022-08-16T09:16:02.899Z,68.21
2022-08-16T09:18:35.347Z,67.34
2022-08-16T09:21:04.121Z,67.19
2022-08-16T09:23:36.390Z,66.29
2022-08-16T09:26:45.811Z,65.77
2022-08-16T09:29:14.505Z,66.16
2022-08-16T09:31:45.025Z,65.75
2022-08-16T09:34:19.154Z,65.69
2022-08-16T09:36:47.533Z,65.23
2022-08-16T09:39:16.024Z,66.03
2022-08-16T09:41:53.699Z,64.86
2022-08-16T09:45:09.212Z,65.05
2022-08-16T09:47:11.687Z,64.55
2022-08-16T09:49:40.773Z,63.68
2022-08-16T09:52:09.896Z,64.00
2022-08-16T09:54:38.726Z,63.78
2022-08-16T09:57:13.709Z,62.77
2022-08-16T09:59:42.200Z,62.51
2022-08-16T10:02:26.567Z,62.24
2022-08-16T10:04:55.681Z,62.02
2022-08-16T10:07:23.671Z,61.56
2022-08-16T10:09:55.737Z,61.77
2022-08-16T10:12:45.395Z,61.50
2022-08-16T10:15:15.582Z,61.45
2022-08-16T10:17:45.702Z,61.27
2022-08-16T10:20:28.119Z,60.85
2022-08-16T10:23:02.121Z,60.95
2022-08-16T10:27:17.249Z,61.02
2022-08-16T10:28:28.131Z,61.35
2022-08-16T10:30:59.232Z,61.63
2022-08-16T10:33:29.392Z,61.22
2022-08-16T10:36:03.013Z,61.62
2022-08-16T10:38:32.958Z,62.30
2022-08-16T10:41:04.841Z,62.28
2022-08-16T10:43:36.479Z,60.99
2022-08-16T10:46:39.378Z,61.09
2022-08-16T10:48:56.055Z,61.01
2022-08-16T10:51:33.377Z,61.63
2022-08-16T10:54:02.659Z,61.54
2022-08-16T10:56:52.893Z,62.04
2022-08-16T10:59:38.355Z,61.06
2022-08-16T11:02:58.006Z,60.45
2022-08-16T11:05:08.995Z,59.79
2022-08-16T11:07:52.621Z,58.59
2022-08-16T11:19:13.167Z,55.88
2022-08-16T11:24:41.558Z,55.99
2022-08-16T11:27:24.159Z,56.50
2022-08-16T11:30:01.002Z,54.87
2022-08-16T11:32:32.182Z,54.65
2022-08-16T11:35:14.853Z,55.70
2022-08-16T11:40:37.732Z,56.14
2022-08-16T11:43:09.963Z,55.62
2022-08-16T11:45:38.378Z,55.36
2022-08-16T11:48:07.692Z,55.93
2022-08-16T11:50:35.903Z,56.19
2022-08-16T11:53:05.822Z,56.59
2022-08-16T11:55:38.100Z,57.40
2022-08-16T11:58:07.159Z,57.71
2022-08-16T12:00:51.185Z,58.02
2022-08-16T12:03:31.487Z,58.25
2022-08-16T12:06:07.973Z,58.37
2022-08-16T12:08:41.204Z,57.91
2022-08-16T12:11:10.424Z,56.99
2022-08-16T12:13:38.157Z,56.50
2022-08-16T12:16:07.884Z,56.63
2022-08-16T12:18:40.105Z,55.96
2022-08-16T12:21:09.942Z,55.97
2022-08-16T12:23:37.963Z,52.53
2022-08-16T12:26:06.349Z,53.19
2022-08-16T12:28:54.719Z,53.24
2022-08-16T12:31:23.101Z,52.62
2022-08-16T12:33:54.419Z,52.18
2022-08-16T12:36:29.732Z,51.68
2022-08-16T12:38:58.727Z,51.51
2022-08-16T12:41:26.790Z,51.22
2022-08-16T12:43:57.140Z,51.46
2022-08-16T12:46:29.324Z,52.26
2022-08-16T12:49:00.099Z,50.93
2022-08-16T12:51:57.546Z,50.23
2022-08-16T12:54:19.812Z,50.67
2022-08-16T12:56:48.185Z,50.72
2022-08-16T12:59:20.466Z,49.60
2022-08-16T13:01:50.227Z,49.27
2022-08-16T13:04:20.543Z,49.03
2022-08-16T13:06:52.525Z,48.70
2022-08-16T13:09:23.494Z,48.83
2022-08-16T13:12:00.353Z,49.17
2022-08-16T13:14:32.871Z,49.50
2022-08-16T13:17:01.432Z,49.47
2022-08-16T13:19:49.820Z,49.39
2022-08-16T13:22:19.876Z,49.89
2022-08-16T13:24:47.742Z,50.33
2022-08-16T13:27:15.815Z,50.55
2022-08-16T13:29:45.277Z,51.25
2022-08-16T13:32:39.786Z,50.56
2022-08-16T13:35:11.805Z,50.49
2022-08-16T13:37:41.755Z,50.85
2022-08-16T13:40:19.965Z,50.61
2022-08-16T13:42:49.539Z,50.60
2022-08-16T13:45:20.256Z,50.90
2022-08-16T13:47:52.914Z,50.46
2022-08-16T13:50:31.088Z,50.79
2022-08-16T13:53:11.475Z,51.72
2022-08-16T13:55:40.958Z,51.55
2022-08-16T13:58:37.048Z,51.64
2022-08-16T14:00:57.232Z,51.68
2022-08-16T14:03:24.969Z,51.52
2022-08-16T14:05:54.460Z,51.38
2022-08-16T14:08:26.980Z,50.80
2022-08-16T14:10:57.903Z,50.68
2022-08-16T14:13:25.748Z,51.22
2022-08-16T14:15:55.672Z,51.83
2022-08-16T14:18:23.679Z,51.05
2022-08-16T14:21:00.354Z,51.64
2022-08-16T14:23:28.159Z,51.58
2022-08-16T14:25:57.174Z,51.51
2022-08-16T14:28:25.789Z,51.75
2022-08-16T14:30:54.053Z,50.69
2022-08-16T14:33:21.847Z,51.38
2022-08-16T14:35:50.524Z,51.83
2022-08-16T14:38:23.797Z,51.38
2022-08-16T14:40:55.032Z,49.99
2022-08-16T14:43:23.756Z,50.53
2022-08-16T14:45:51.480Z,50.46
2022-08-16T14:48:25.819Z,50.64
2022-08-16T14:50:54.738Z,50.25
2022-08-16T14:53:25.612Z,50.16
2022-08-16T14:55:54.121Z,50.24
2022-08-16T14:58:34.711Z,50.10
2022-08-16T15:01:04.862Z,50.21
2022-08-16T15:03:33.137Z,50.21
2022-08-16T15:06:05.380Z,50.77
2022-08-16T15:08:37.403Z,50.69
2022-08-16T15:11:08.100Z,50.66
2022-08-16T15:13:36.208Z,50.78
2022-08-16T15:16:04.492Z,51.36
2022-08-16T15:18:33.356Z,51.08
2022-08-16T15:21:02.381Z,51.14
2022-08-16T15:23:31.487Z,51.46
2022-08-16T15:26:04.434Z,50.80
2022-08-16T15:28:37.905Z,51.41
2022-08-16T15:31:08.176Z,51.26
2022-08-16T15:33:44.276Z,51.08
2022-08-16T15:36:18.282Z,51.33
2022-08-16T15:38:55.823Z,51.40
2022-08-16T15:41:53.784Z,50.59
2022-08-16T15:44:23.671Z,50.75
2022-08-16T15:46:55.301Z,50.72
2022-08-16T15:49:34.700Z,51.38
2022-08-16T15:52:11.075Z,51.32
2022-08-16T15:54:52.552Z,51.49
2022-08-16T15:57:23.110Z,51.82
2022-08-16T15:59:52.672Z,51.61
2022-08-16T16:02:29.581Z,50.99
2022-08-16T16:05:00.559Z,50.23
2022-08-16T16:07:30.219Z,50.39
2022-08-16T16:09:59.039Z,49.96
2022-08-16T16:15:17.578Z,49.97
2022-08-16T16:17:46.843Z,49.84
2022-08-16T16:20:19.661Z,49.77
2022-08-16T16:22:49.367Z,49.25
2022-08-16T16:25:18.983Z,48.39
2022-08-16T16:27:55.510Z,48.02
2022-08-16T16:30:33.094Z,48.29
2022-08-16T16:33:21.263Z,49.82
2022-08-16T16:35:55.217Z,49.90
2022-08-16T16:38:30.732Z,50.24
2022-08-16T16:40:59.190Z,49.59
2022-08-16T16:43:31.805Z,50.31
2022-08-16T16:46:02.096Z,50.17
2022-08-16T16:48:35.102Z,50.58
2022-08-16T16:51:09.209Z,50.30
2022-08-16T16:53:39.361Z,50.18
2022-08-16T16:56:08.680Z,50.03
2022-08-16T16:59:05.540Z,50.46
2022-08-16T17:01:57.769Z,50.87
2022-08-16T17:04:32.427Z,50.89
2022-08-16T17:07:02.041Z,51.53
2022-08-16T17:09:30.540Z,51.86
2022-08-16T17:11:59.393Z,52.20
2022-08-16T17:14:33.659Z,52.31
2022-08-16T17:17:06.165Z,52.49
2022-08-16T17:19:34.201Z,52.94
2022-08-16T17:22:14.142Z,53.03
2022-08-16T17:24:44.751Z,52.58
2022-08-16T17:27:18.115Z,53.03
2022-08-16T17:29:51.365Z,53.42
2022-08-16T17:32:46.597Z,53.47
2022-08-16T17:35:17.862Z,53.34
2022-08-16T17:37:50.928Z,53.10
2022-08-16T17:40:25.845Z,53.35
2022-08-16T17:43:10.125Z,53.87
2022-08-16T17:45:40.114Z,53.98
2022-08-16T17:48:07.987Z,54.07
2022-08-16T17:50:36.038Z,54.45
2022-08-16T17:53:04.136Z,54.58
2022-08-16T17:55:33.962Z,55.24
2022-08-16T17:58:20.153Z,55.22
2022-08-16T18:00:52.746Z,55.37
2022-08-16T18:04:09.257Z,55.47
2022-08-16T18:06:13.396Z,56.01
2022-08-16T18:08:44.914Z,56.24
2022-08-16T18:11:26.018Z,56.56
2022-08-16T18:13:57.010Z,56.62
2022-08-16T18:16:27.444Z,56.65
2022-08-16T18:18:56.395Z,57.02
2022-08-16T18:21:43.586Z,57.04
2022-08-16T18:24:12.166Z,57.27
2022-08-16T18:26:40.513Z,57.58
2022-08-16T18:29:08.703Z,57.75
2022-08-16T18:31:37.894Z,58.22
2022-08-16T18:34:05.835Z,57.92
2022-08-16T18:36:34.659Z,58.33
2022-08-16T18:39:02.344Z,58.77
2022-08-16T18:41:33.499Z,58.98
2022-08-16T18:44:26.311Z,59.30
2022-08-16T18:46:50.938Z,59.64
2022-08-16T18:49:19.122Z,59.98
2022-08-16T18:51:47.414Z,60.47
2022-08-16T18:54:17.910Z,60.48
2022-08-16T18:56:54.299Z,60.71
2022-08-16T18:59:25.291Z,60.63
2022-08-16T19:01:59.845Z,60.66
2022-08-16T19:04:56.042Z,60.88
2022-08-16T19:07:19.761Z,60.91
2022-08-16T19:09:47.397Z,61.18
2022-08-16T19:12:15.951Z,60.98
2022-08-16T19:14:44.190Z,61.08
2022-08-16T19:17:13.440Z,61.28
2022-08-16T19:19:41.116Z,61.33
2022-08-16T19:22:08.782Z,61.67
2022-08-16T19:24:36.449Z,61.59
2022-08-16T19:27:10.109Z,61.70
2022-08-16T19:29:37.761Z,61.51
2022-08-16T19:32:05.506Z,61.65
2022-08-16T19:34:34.466Z,61.93
2022-08-16T19:37:02.046Z,62.26
2022-08-16T19:39:32.646Z,62.26
2022-08-16T19:42:11.672Z,62.15
2022-08-16T19:44:39.401Z,62.37
2022-08-16T19:47:07.450Z,62.25
2022-08-16T19:49:36.662Z,62.43
2022-08-16T19:52:12.393Z,62.36
2022-08-16T19:54:40.487Z,62.51
2022-08-16T19:57:08.999Z,62.53
2022-08-16T19:59:40.491Z,62.88
2022-08-16T20:02:35.413Z,63.19
2022-08-16T20:05:05.984Z,63.53
2022-08-16T20:07:33.596Z,64.08
2022-08-16T20:10:01.503Z,63.99
2022-08-16T20:12:29.111Z,63.63
2022-08-16T20:14:57.186Z,63.92
2022-08-16T20:17:24.876Z,64.09
2022-08-16T20:19:52.639Z,64.02
2022-08-16T20:22:52.349Z,64.20
2022-08-16T20:25:28.049Z,64.32
2022-08-16T20:27:56.832Z,64.04
2022-08-16T20:30:25.638Z,63.84
2022-08-16T20:32:57.440Z,64.06
2022-08-16T20:35:28.530Z,63.88
2022-08-16T20:37:57.725Z,64.64
2022-08-16T20:40:34.398Z,64.47
2022-08-16T20:43:06.094Z,64.78
2022-08-16T20:45:34.055Z,64.93
2022-08-16T20:48:02.812Z,65.25
2022-08-16T20:50:30.586Z,65.18
2022-08-16T20:53:00.008Z,64.98
2022-08-16T20:55:29.128Z,65.40
2022-08-16T20:57:57.088Z,65.25
2022-08-16T21:00:25.070Z,65.54
2022-08-16T21:02:52.990Z,65.17
2022-08-16T21:05:27.876Z,65.53
2022-08-16T21:08:00.829Z,65.59
2022-08-16T21:10:31.601Z,65.19
2022-08-16T21:13:02.982Z,65.29
2022-08-16T21:15:33.346Z,65.40
2022-08-16T21:18:01.469Z,65.74
2022-08-16T21:20:29.631Z,65.55
2022-08-16T21:22:59.125Z,65.33
2022-08-16T21:25:29.287Z,65.30
2022-08-16T21:28:41.387Z,65.81
2022-08-16T21:30:47.912Z,66.22
2022-08-16T21:33:18.110Z,65.89
2022-08-16T21:35:47.890Z,65.78
2022-08-16T21:38:29.131Z,66.09
2022-08-16T21:40:59.585Z,65.83
2022-08-16T21:43:31.819Z,65.81
2022-08-16T21:46:00.734Z,65.92
2022-08-16T21:48:33.570Z,65.86
2022-08-16T21:51:02.404Z,66.33
2022-08-16T21:53:30.489Z,66.53
2022-08-16T21:56:00.498Z,66.73
2022-08-16T21:58:29.147Z,66.85
2022-08-16T22:00:57.458Z,66.76
2022-08-16T22:03:26.104Z,66.74
2022-08-16T22:06:05.875Z,66.96
2022-08-16T22:08:49.493Z,66.83
2022-08-16T22:11:22.909Z,67.16
2022-08-16T22:13:58.512Z,67.28
2022-08-16T22:16:29.966Z,67.23
2022-08-16T22:18:58.204Z,67.22
2022-08-16T22:21:26.707Z,67.20
2022-08-16T22:23:58.896Z,67.60
2022-08-16T22:26:31.208Z,67.40
2022-08-16T22:29:00.900Z,67.66
2022-08-16T22:31:29.297Z,67.78
2022-08-16T22:33:58.140Z,68.04
2022-08-16T22:36:30.600Z,68.29
2022-08-16T22:38:59.403Z,68.55
2022-08-16T22:41:34.514Z,68.79
2022-08-16T22:44:09.362Z,69.09
2022-08-16T22:46:40.587Z,69.46
2022-08-16T22:49:13.751Z,69.70
2022-08-16T22:51:47.898Z,69.54
2022-08-16T22:54:41.273Z,69.20
2022-08-16T22:57:06.127Z,69.39
2022-08-16T22:59:34.723Z,69.22
2022-08-16T23:02:05.607Z,69.38
2022-08-16T23:04:33.873Z,69.05
2022-08-16T23:07:01.998Z,69.62
2022-08-16T23:09:32.258Z,68.84
2022-08-16T23:12:03.797Z,68.83
2022-08-16T23:14:32.893Z,69.35
2022-08-16T23:17:01.381Z,69.42
2022-08-16T23:19:29.752Z,69.39
2022-08-16T23:21:58.158Z,69.31
2022-08-16T23:24:27.507Z,69.75
2022-08-16T23:26:55.384Z,69.99
2022-08-16T23:29:26.623Z,70.12
2022-08-16T23:31:59.827Z,70.35
2022-08-16T23:34:30.347Z,70.48
2022-08-16T23:36:58.126Z,69.93
2022-08-16T23:39:27.196Z,70.40
2022-08-16T23:41:55.569Z,70.69
2022-08-16T23:44:55.073Z,70.82
2022-08-16T23:47:17.895Z,70.87
2022-08-16T23:50:01.178Z,70.83
2022-08-16T23:52:53.550Z,71.04
2022-08-16T23:55:19.069Z,71.25
2022-08-16T23:57:47.248Z,71.15
